sensor_id;sensor_type;location;lat;lon;timestamp;temperature;humidity
47338;DHT22;33069;51.970;5.892;2024-01-30T00:01:26;8.90;81.60
47338;DHT22;33069;51.970;5.892;2024-01-30T00:04:12;8.90;81.60
47338;DHT22;33069;51.970;5.892;2024-01-30T00:06:58;8.90;81.50
47338;DHT22;33069;51.970;5.892;2024-01-30T00:09:46;8.80;81.80
47338;DHT22;33069;51.970;5.892;2024-01-30T00:12:32;8.70;81.90
47338;DHT22;33069;51.970;5.892;2024-01-30T00:15:17;8.70;82.00
47338;DHT22;33069;51.970;5.892;2024-01-30T00:18:04;8.70;82.10
47338;DHT22;33069;51.970;5.892;2024-01-30T00:20:49;8.70;82.00
47338;DHT22;33069;51.970;5.892;2024-01-30T00:23:35;8.60;82.10
47338;DHT22;33069;51.970;5.892;2024-01-30T00:26:21;8.60;82.20
47338;DHT22;33069;51.970;5.892;2024-01-30T00:29:07;8.60;82.20
47338;DHT22;33069;51.970;5.892;2024-01-30T00:31:53;8.60;82.20
47338;DHT22;33069;51.970;5.892;2024-01-30T00:34:39;8.50;82.20
47338;DHT22;33069;51.970;5.892;2024-01-30T00:37:25;8.50;82.40
47338;DHT22;33069;51.970;5.892;2024-01-30T00:40:10;8.50;82.50
47338;DHT22;33069;51.970;5.892;2024-01-30T00:43:01;8.50;82.50
47338;DHT22;33069;51.970;5.892;2024-01-30T00:45:46;8.50;82.40
47338;DHT22;33069;51.970;5.892;2024-01-30T00:48:32;8.50;82.60
47338;DHT22;33069;51.970;5.892;2024-01-30T00:51:18;8.50;82.60
47338;DHT22;33069;51.970;5.892;2024-01-30T00:54:04;8.50;82.50
47338;DHT22;33069;51.970;5.892;2024-01-30T00:56:51;8.40;82.60
47338;DHT22;33069;51.970;5.892;2024-01-30T00:59:37;8.40;82.50
47338;DHT22;33069;51.970;5.892;2024-01-30T01:02:23;8.40;82.50
47338;DHT22;33069;51.970;5.892;2024-01-30T01:05:09;8.40;82.60
47338;DHT22;33069;51.970;5.892;2024-01-30T01:07:55;8.40;82.50
47338;DHT22;33069;51.970;5.892;2024-01-30T01:10:41;8.40;82.50
47338;DHT22;33069;51.970;5.892;2024-01-30T01:13:26;8.40;82.40
47338;DHT22;33069;51.970;5.892;2024-01-30T01:16:12;8.40;82.30
47338;DHT22;33069;51.970;5.892;2024-01-30T01:18:58;8.40;82.20
47338;DHT22;33069;51.970;5.892;2024-01-30T01:21:45;8.40;82.40
47338;DHT22;33069;51.970;5.892;2024-01-30T01:24:31;8.30;82.30
47338;DHT22;33069;51.970;5.892;2024-01-30T01:27:17;8.30;82.40
47338;DHT22;33069;51.970;5.892;2024-01-30T01:30:03;8.20;82.40
47338;DHT22;33069;51.970;5.892;2024-01-30T01:32:51;8.20;82.50
47338;DHT22;33069;51.970;5.892;2024-01-30T01:35:40;8.20;82.60
47338;DHT22;33069;51.970;5.892;2024-01-30T01:38:26;8.20;82.60
47338;DHT22;33069;51.970;5.892;2024-01-30T01:41:12;8.20;82.60
47338;DHT22;33069;51.970;5.892;2024-01-30T01:43:58;8.20;82.50
47338;DHT22;33069;51.970;5.892;2024-01-30T01:46:44;8.20;82.40
47338;DHT22;33069;51.970;5.892;2024-01-30T01:49:30;8.30;82.40
47338;DHT22;33069;51.970;5.892;2024-01-30T01:52:16;8.30;82.30
47338;DHT22;33069;51.970;5.892;2024-01-30T01:55:02;8.30;82.20
47338;DHT22;33069;51.970;5.892;2024-01-30T01:57:48;8.20;82.20
47338;DHT22;33069;51.970;5.892;2024-01-30T02:00:34;8.20;82.10
47338;DHT22;33069;51.970;5.892;2024-01-30T02:03:20;8.20;82.10
47338;DHT22;33069;51.970;5.892;2024-01-30T02:06:07;8.20;82.10
47338;DHT22;33069;51.970;5.892;2024-01-30T02:08:53;8.20;82.10
47338;DHT22;33069;51.970;5.892;2024-01-30T02:11:39;8.20;82.00
47338;DHT22;33069;51.970;5.892;2024-01-30T02:14:26;8.20;82.00
47338;DHT22;33069;51.970;5.892;2024-01-30T02:17:12;8.20;81.90
47338;DHT22;33069;51.970;5.892;2024-01-30T02:19:59;8.10;81.90
47338;DHT22;33069;51.970;5.892;2024-01-30T02:22:45;8.10;81.90
47338;DHT22;33069;51.970;5.892;2024-01-30T02:25:39;7.90;81.70
47338;DHT22;33069;51.970;5.892;2024-01-30T02:28:29;7.80;81.80
47338;DHT22;33069;51.970;5.892;2024-01-30T02:31:15;7.80;82.10
47338;DHT22;33069;51.970;5.892;2024-01-30T02:34:01;7.80;82.00
47338;DHT22;33069;51.970;5.892;2024-01-30T02:36:47;7.70;81.70
47338;DHT22;33069;51.970;5.892;2024-01-30T02:39:33;7.70;82.10
47338;DHT22;33069;51.970;5.892;2024-01-30T02:42:19;7.70;82.00
47338;DHT22;33069;51.970;5.892;2024-01-30T02:45:04;7.80;82.00
47338;DHT22;33069;51.970;5.892;2024-01-30T02:47:51;7.70;82.00
47338;DHT22;33069;51.970;5.892;2024-01-30T02:50:37;7.70;82.00
47338;DHT22;33069;51.970;5.892;2024-01-30T02:53:22;7.60;82.10
47338;DHT22;33069;51.970;5.892;2024-01-30T02:56:08;7.70;82.30
47338;DHT22;33069;51.970;5.892;2024-01-30T02:58:55;7.80;82.20
47338;DHT22;33069;51.970;5.892;2024-01-30T03:01:44;7.90;82.20
47338;DHT22;33069;51.970;5.892;2024-01-30T03:04:30;7.90;82.20
47338;DHT22;33069;51.970;5.892;2024-01-30T03:07:16;7.90;82.00
47338;DHT22;33069;51.970;5.892;2024-01-30T03:10:03;8.00;82.00
47338;DHT22;33069;51.970;5.892;2024-01-30T03:12:49;8.00;81.90
47338;DHT22;33069;51.970;5.892;2024-01-30T03:15:35;8.00;81.90
47338;DHT22;33069;51.970;5.892;2024-01-30T03:18:21;7.90;81.80
47338;DHT22;33069;51.970;5.892;2024-01-30T03:21:07;7.90;81.80
47338;DHT22;33069;51.970;5.892;2024-01-30T03:23:53;7.90;81.70
47338;DHT22;33069;51.970;5.892;2024-01-30T03:26:39;7.70;81.60
47338;DHT22;33069;51.970;5.892;2024-01-30T03:29:25;7.70;81.80
47338;DHT22;33069;51.970;5.892;2024-01-30T03:32:10;7.80;81.70
47338;DHT22;33069;51.970;5.892;2024-01-30T03:34:56;7.80;81.70
47338;DHT22;33069;51.970;5.892;2024-01-30T03:37:43;7.60;81.70
47338;DHT22;33069;51.970;5.892;2024-01-30T03:40:29;7.60;82.00
47338;DHT22;33069;51.970;5.892;2024-01-30T03:43:15;7.50;82.30
47338;DHT22;33069;51.970;5.892;2024-01-30T03:46:01;7.60;82.20
47338;DHT22;33069;51.970;5.892;2024-01-30T03:48:48;7.60;82.30
47338;DHT22;33069;51.970;5.892;2024-01-30T03:51:33;7.50;82.10
47338;DHT22;33069;51.970;5.892;2024-01-30T03:54:19;7.60;82.30
47338;DHT22;33069;51.970;5.892;2024-01-30T03:57:05;7.60;82.30
47338;DHT22;33069;51.970;5.892;2024-01-30T03:59:51;7.60;82.20
47338;DHT22;33069;51.970;5.892;2024-01-30T04:02:37;7.60;82.20
47338;DHT22;33069;51.970;5.892;2024-01-30T04:05:23;7.50;82.20
47338;DHT22;33069;51.970;5.892;2024-01-30T04:08:09;7.60;82.20
47338;DHT22;33069;51.970;5.892;2024-01-30T04:10:55;7.50;82.10
47338;DHT22;33069;51.970;5.892;2024-01-30T04:13:41;7.50;82.30
47338;DHT22;33069;51.970;5.892;2024-01-30T04:16:28;7.60;82.30
47338;DHT22;33069;51.970;5.892;2024-01-30T04:19:14;7.70;82.30
47338;DHT22;33069;51.970;5.892;2024-01-30T04:22:00;7.70;82.20
47338;DHT22;33069;51.970;5.892;2024-01-30T04:24:46;7.70;82.00
47338;DHT22;33069;51.970;5.892;2024-01-30T04:27:32;7.70;82.20
47338;DHT22;33069;51.970;5.892;2024-01-30T04:30:18;7.70;82.00
47338;DHT22;33069;51.970;5.892;2024-01-30T04:33:04;7.80;82.20
47338;DHT22;33069;51.970;5.892;2024-01-30T04:35:50;7.80;82.10
47338;DHT22;33069;51.970;5.892;2024-01-30T04:38:36;7.70;82.10
47338;DHT22;33069;51.970;5.892;2024-01-30T04:41:22;7.70;82.20
47338;DHT22;33069;51.970;5.892;2024-01-30T04:44:09;7.70;82.20
47338;DHT22;33069;51.970;5.892;2024-01-30T04:46:54;7.70;82.20
47338;DHT22;33069;51.970;5.892;2024-01-30T04:49:44;7.70;82.20
47338;DHT22;33069;51.970;5.892;2024-01-30T04:52:30;7.70;82.30
47338;DHT22;33069;51.970;5.892;2024-01-30T04:55:16;7.70;82.40
47338;DHT22;33069;51.970;5.892;2024-01-30T04:58:02;7.70;82.50
47338;DHT22;33069;51.970;5.892;2024-01-30T05:00:48;7.70;82.50
47338;DHT22;33069;51.970;5.892;2024-01-30T05:03:37;7.70;82.50
47338;DHT22;33069;51.970;5.892;2024-01-30T05:06:26;7.70;82.70
47338;DHT22;33069;51.970;5.892;2024-01-30T05:09:12;7.90;82.60
47338;DHT22;33069;51.970;5.892;2024-01-30T05:11:58;7.90;82.50
47338;DHT22;33069;51.970;5.892;2024-01-30T05:14:43;7.90;82.30
47338;DHT22;33069;51.970;5.892;2024-01-30T05:17:29;7.90;82.30
47338;DHT22;33069;51.970;5.892;2024-01-30T05:20:16;8.00;82.40
47338;DHT22;33069;51.970;5.892;2024-01-30T05:23:02;8.00;82.40
47338;DHT22;33069;51.970;5.892;2024-01-30T05:25:48;8.10;82.40
47338;DHT22;33069;51.970;5.892;2024-01-30T05:28:34;8.20;82.20
47338;DHT22;33069;51.970;5.892;2024-01-30T05:31:20;8.30;82.20
47338;DHT22;33069;51.970;5.892;2024-01-30T05:34:06;8.30;82.00
47338;DHT22;33069;51.970;5.892;2024-01-30T05:36:52;8.20;81.70
47338;DHT22;33069;51.970;5.892;2024-01-30T05:39:38;8.20;81.80
47338;DHT22;33069;51.970;5.892;2024-01-30T05:42:24;8.00;81.90
47338;DHT22;33069;51.970;5.892;2024-01-30T05:45:10;8.20;82.00
47338;DHT22;33069;51.970;5.892;2024-01-30T05:47:56;8.30;81.90
47338;DHT22;33069;51.970;5.892;2024-01-30T05:50:41;8.40;81.70
47338;DHT22;33069;51.970;5.892;2024-01-30T05:53:27;8.40;81.60
47338;DHT22;33069;51.970;5.892;2024-01-30T05:56:13;8.40;81.70
47338;DHT22;33069;51.970;5.892;2024-01-30T05:58:59;8.40;81.70
47338;DHT22;33069;51.970;5.892;2024-01-30T06:01:48;8.50;81.70
47338;DHT22;33069;51.970;5.892;2024-01-30T06:04:34;8.60;81.80
47338;DHT22;33069;51.970;5.892;2024-01-30T06:07:20;8.60;81.50
47338;DHT22;33069;51.970;5.892;2024-01-30T06:10:06;8.60;81.60
47338;DHT22;33069;51.970;5.892;2024-01-30T06:12:52;8.60;81.60
47338;DHT22;33069;51.970;5.892;2024-01-30T06:15:38;8.70;81.60
47338;DHT22;33069;51.970;5.892;2024-01-30T06:18:24;8.70;81.30
47338;DHT22;33069;51.970;5.892;2024-01-30T06:21:12;8.80;81.30
47338;DHT22;33069;51.970;5.892;2024-01-30T06:23:58;8.80;81.30
47338;DHT22;33069;51.970;5.892;2024-01-30T06:26:43;8.70;81.30
47338;DHT22;33069;51.970;5.892;2024-01-30T06:29:29;8.80;81.20
47338;DHT22;33069;51.970;5.892;2024-01-30T06:32:15;8.80;81.20
47338;DHT22;33069;51.970;5.892;2024-01-30T06:35:01;8.80;81.30
47338;DHT22;33069;51.970;5.892;2024-01-30T06:37:47;8.80;81.10
47338;DHT22;33069;51.970;5.892;2024-01-30T06:40:33;8.90;81.10
47338;DHT22;33069;51.970;5.892;2024-01-30T06:43:19;9.00;81.00
47338;DHT22;33069;51.970;5.892;2024-01-30T06:46:05;9.00;80.80
47338;DHT22;33069;51.970;5.892;2024-01-30T06:48:51;9.00;80.70
47338;DHT22;33069;51.970;5.892;2024-01-30T06:51:36;9.10;80.80
47338;DHT22;33069;51.970;5.892;2024-01-30T06:54:22;9.10;80.70
47338;DHT22;33069;51.970;5.892;2024-01-30T06:57:08;9.00;80.70
47338;DHT22;33069;51.970;5.892;2024-01-30T06:59:57;9.10;80.70
47338;DHT22;33069;51.970;5.892;2024-01-30T07:02:43;9.20;80.50
47338;DHT22;33069;51.970;5.892;2024-01-30T07:05:29;9.20;80.50
47338;DHT22;33069;51.970;5.892;2024-01-30T07:08:15;9.30;80.40
47338;DHT22;33069;51.970;5.892;2024-01-30T07:11:02;9.30;80.40
47338;DHT22;33069;51.970;5.892;2024-01-30T07:13:49;9.10;80.60
47338;DHT22;33069;51.970;5.892;2024-01-30T07:16:35;9.10;80.80
47338;DHT22;33069;51.970;5.892;2024-01-30T07:19:21;9.10;81.00
47338;DHT22;33069;51.970;5.892;2024-01-30T07:22:07;9.10;81.00
47338;DHT22;33069;51.970;5.892;2024-01-30T07:24:53;9.20;81.00
47338;DHT22;33069;51.970;5.892;2024-01-30T07:27:39;9.20;80.70
47338;DHT22;33069;51.970;5.892;2024-01-30T07:30:25;9.30;80.70
47338;DHT22;33069;51.970;5.892;2024-01-30T07:33:11;9.30;80.70
47338;DHT22;33069;51.970;5.892;2024-01-30T07:35:57;9.30;80.70
47338;DHT22;33069;51.970;5.892;2024-01-30T07:38:43;9.30;80.80
47338;DHT22;33069;51.970;5.892;2024-01-30T07:41:28;9.40;80.80
47338;DHT22;33069;51.970;5.892;2024-01-30T07:44:14;9.40;80.80
47338;DHT22;33069;51.970;5.892;2024-01-30T07:47:01;9.30;80.80
47338;DHT22;33069;51.970;5.892;2024-01-30T07:49:48;9.40;80.80
47338;DHT22;33069;51.970;5.892;2024-01-30T07:52:34;9.40;80.70
47338;DHT22;33069;51.970;5.892;2024-01-30T07:55:20;9.50;80.70
47338;DHT22;33069;51.970;5.892;2024-01-30T07:58:10;9.50;80.90
47338;DHT22;33069;51.970;5.892;2024-01-30T08:00:56;9.50;81.00
47338;DHT22;33069;51.970;5.892;2024-01-30T08:03:43;9.60;80.90
47338;DHT22;33069;51.970;5.892;2024-01-30T08:06:29;9.50;80.80
47338;DHT22;33069;51.970;5.892;2024-01-30T08:09:15;9.50;80.80
47338;DHT22;33069;51.970;5.892;2024-01-30T08:12:01;9.60;81.00
47338;DHT22;33069;51.970;5.892;2024-01-30T08:14:47;9.60;81.00
47338;DHT22;33069;51.970;5.892;2024-01-30T08:17:33;9.70;80.90
47338;DHT22;33069;51.970;5.892;2024-01-30T08:20:19;9.70;80.80
47338;DHT22;33069;51.970;5.892;2024-01-30T08:23:05;9.80;80.60
47338;DHT22;33069;51.970;5.892;2024-01-30T08:25:50;9.80;80.50
47338;DHT22;33069;51.970;5.892;2024-01-30T08:28:36;9.70;80.70
47338;DHT22;33069;51.970;5.892;2024-01-30T08:31:22;9.60;81.00
47338;DHT22;33069;51.970;5.892;2024-01-30T08:34:08;9.70;81.10
47338;DHT22;33069;51.970;5.892;2024-01-30T08:36:54;9.90;80.90
47338;DHT22;33069;51.970;5.892;2024-01-30T08:39:40;9.80;80.50
47338;DHT22;33069;51.970;5.892;2024-01-30T08:42:26;9.90;80.40
47338;DHT22;33069;51.970;5.892;2024-01-30T08:45:11;9.90;80.30
47338;DHT22;33069;51.970;5.892;2024-01-30T08:47:58;10.00;80.30
47338;DHT22;33069;51.970;5.892;2024-01-30T08:50:44;10.00;80.20
47338;DHT22;33069;51.970;5.892;2024-01-30T08:53:30;10.10;80.20
47338;DHT22;33069;51.970;5.892;2024-01-30T08:56:16;10.10;80.00
47338;DHT22;33069;51.970;5.892;2024-01-30T08:59:02;10.10;80.00
47338;DHT22;33069;51.970;5.892;2024-01-30T09:01:48;10.10;79.90
47338;DHT22;33069;51.970;5.892;2024-01-30T09:04:34;10.10;80.00
47338;DHT22;33069;51.970;5.892;2024-01-30T09:07:20;10.20;80.00
47338;DHT22;33069;51.970;5.892;2024-01-30T09:10:06;10.30;79.80
47338;DHT22;33069;51.970;5.892;2024-01-30T09:12:52;10.20;79.70
47338;DHT22;33069;51.970;5.892;2024-01-30T09:15:38;10.20;79.90
47338;DHT22;33069;51.970;5.892;2024-01-30T09:18:24;10.30;79.90
47338;DHT22;33069;51.970;5.892;2024-01-30T09:21:10;10.40;79.90
47338;DHT22;33069;51.970;5.892;2024-01-30T09:24:01;10.40;79.70
47338;DHT22;33069;51.970;5.892;2024-01-30T09:26:47;10.40;79.50
47338;DHT22;33069;51.970;5.892;2024-01-30T09:29:33;10.50;79.40
47338;DHT22;33069;51.970;5.892;2024-01-30T09:32:19;10.60;79.30
47338;DHT22;33069;51.970;5.892;2024-01-30T09:35:05;10.50;79.20
47338;DHT22;33069;51.970;5.892;2024-01-30T09:37:51;10.50;79.30
47338;DHT22;33069;51.970;5.892;2024-01-30T09:40:38;10.60;79.50
47338;DHT22;33069;51.970;5.892;2024-01-30T09:43:23;10.70;79.30
47338;DHT22;33069;51.970;5.892;2024-01-30T09:46:11;10.70;79.30
47338;DHT22;33069;51.970;5.892;2024-01-30T09:48:58;10.80;79.10
47338;DHT22;33069;51.970;5.892;2024-01-30T09:51:44;10.70;79.10
47338;DHT22;33069;51.970;5.892;2024-01-30T09:54:31;10.70;79.10
47338;DHT22;33069;51.970;5.892;2024-01-30T09:57:20;10.70;79.50
47338;DHT22;33069;51.970;5.892;2024-01-30T10:00:06;10.70;79.50
47338;DHT22;33069;51.970;5.892;2024-01-30T10:02:55;10.70;79.60
47338;DHT22;33069;51.970;5.892;2024-01-30T10:05:41;10.80;79.60
47338;DHT22;33069;51.970;5.892;2024-01-30T10:08:27;10.80;79.60
47338;DHT22;33069;51.970;5.892;2024-01-30T10:11:14;10.80;79.60
47338;DHT22;33069;51.970;5.892;2024-01-30T10:14:00;11.00;79.50
47338;DHT22;33069;51.970;5.892;2024-01-30T10:16:46;11.00;79.30
47338;DHT22;33069;51.970;5.892;2024-01-30T10:19:32;11.00;79.40
47338;DHT22;33069;51.970;5.892;2024-01-30T10:22:17;11.10;79.40
47338;DHT22;33069;51.970;5.892;2024-01-30T10:25:04;11.10;79.20
47338;DHT22;33069;51.970;5.892;2024-01-30T10:27:53;11.10;79.20
47338;DHT22;33069;51.970;5.892;2024-01-30T10:30:40;11.10;79.30
47338;DHT22;33069;51.970;5.892;2024-01-30T10:33:26;11.10;79.50
47338;DHT22;33069;51.970;5.892;2024-01-30T10:36:13;11.10;79.70
47338;DHT22;33069;51.970;5.892;2024-01-30T10:39:00;11.00;79.80
47338;DHT22;33069;51.970;5.892;2024-01-30T10:41:47;11.10;79.90
47338;DHT22;33069;51.970;5.892;2024-01-30T10:44:39;11.10;79.90
47338;DHT22;33069;51.970;5.892;2024-01-30T10:47:29;11.20;79.80
47338;DHT22;33069;51.970;5.892;2024-01-30T10:50:15;11.20;79.70
47338;DHT22;33069;51.970;5.892;2024-01-30T10:53:01;11.20;79.50
47338;DHT22;33069;51.970;5.892;2024-01-30T10:55:48;11.30;79.20
47338;DHT22;33069;51.970;5.892;2024-01-30T10:58:35;11.40;79.20
47338;DHT22;33069;51.970;5.892;2024-01-30T11:01:23;11.40;79.20
47338;DHT22;33069;51.970;5.892;2024-01-30T11:04:10;11.40;79.30
47338;DHT22;33069;51.970;5.892;2024-01-30T11:06:56;11.40;79.40
47338;DHT22;33069;51.970;5.892;2024-01-30T11:09:52;11.40;79.40
47338;DHT22;33069;51.970;5.892;2024-01-30T11:12:39;11.40;79.60
47338;DHT22;33069;51.970;5.892;2024-01-30T11:15:29;11.50;79.40
47338;DHT22;33069;51.970;5.892;2024-01-30T11:18:26;11.70;79.10
47338;DHT22;33069;51.970;5.892;2024-01-30T11:21:14;11.70;78.90
47338;DHT22;33069;51.970;5.892;2024-01-30T11:24:00;11.70;79.20
47338;DHT22;33069;51.970;5.892;2024-01-30T11:26:58;11.80;78.90
47338;DHT22;33069;51.970;5.892;2024-01-30T11:29:44;11.80;78.40
47338;DHT22;33069;51.970;5.892;2024-01-30T11:32:35;11.80;78.20
47338;DHT22;33069;51.970;5.892;2024-01-30T11:35:21;11.80;78.40
47338;DHT22;33069;51.970;5.892;2024-01-30T11:38:07;11.70;78.00
47338;DHT22;33069;51.970;5.892;2024-01-30T11:40:56;11.80;78.20
47338;DHT22;33069;51.970;5.892;2024-01-30T11:43:43;11.80;77.70
47338;DHT22;33069;51.970;5.892;2024-01-30T11:46:28;11.80;77.60
47338;DHT22;33069;51.970;5.892;2024-01-30T11:49:15;11.90;77.20
47338;DHT22;33069;51.970;5.892;2024-01-30T11:52:01;11.80;76.80
47338;DHT22;33069;51.970;5.892;2024-01-30T11:54:47;11.90;76.90
47338;DHT22;33069;51.970;5.892;2024-01-30T11:57:33;12.00;76.60
47338;DHT22;33069;51.970;5.892;2024-01-30T12:00:20;12.10;76.20
47338;DHT22;33069;51.970;5.892;2024-01-30T12:03:06;12.10;76.00
47338;DHT22;33069;51.970;5.892;2024-01-30T12:05:56;12.20;75.80
47338;DHT22;33069;51.970;5.892;2024-01-30T12:08:43;12.10;75.80
47338;DHT22;33069;51.970;5.892;2024-01-30T12:11:30;12.00;75.90
47338;DHT22;33069;51.970;5.892;2024-01-30T12:14:16;12.10;76.20
47338;DHT22;33069;51.970;5.892;2024-01-30T12:17:02;11.90;76.40
47338;DHT22;33069;51.970;5.892;2024-01-30T12:19:48;12.00;76.40
47338;DHT22;33069;51.970;5.892;2024-01-30T12:22:38;11.90;76.20
47338;DHT22;33069;51.970;5.892;2024-01-30T12:25:24;12.00;76.40
47338;DHT22;33069;51.970;5.892;2024-01-30T12:28:10;12.00;75.90
47338;DHT22;33069;51.970;5.892;2024-01-30T12:30:56;12.00;75.70
47338;DHT22;33069;51.970;5.892;2024-01-30T12:33:43;11.90;74.60
47338;DHT22;33069;51.970;5.892;2024-01-30T12:36:29;11.90;74.20
47338;DHT22;33069;51.970;5.892;2024-01-30T12:39:16;12.00;73.90
47338;DHT22;33069;51.970;5.892;2024-01-30T12:42:02;12.00;73.10
47338;DHT22;33069;51.970;5.892;2024-01-30T12:44:49;11.70;73.70
47338;DHT22;33069;51.970;5.892;2024-01-30T12:47:35;11.00;75.90
47338;DHT22;33069;51.970;5.892;2024-01-30T12:50:21;10.70;77.60
47338;DHT22;33069;51.970;5.892;2024-01-30T12:53:08;10.60;78.10
47338;DHT22;33069;51.970;5.892;2024-01-30T12:55:54;10.50;77.90
47338;DHT22;33069;51.970;5.892;2024-01-30T12:58:40;10.60;77.90
47338;DHT22;33069;51.970;5.892;2024-01-30T13:01:28;10.60;77.90
47338;DHT22;33069;51.970;5.892;2024-01-30T13:04:14;10.80;77.40
47338;DHT22;33069;51.970;5.892;2024-01-30T13:07:01;10.80;77.20
47338;DHT22;33069;51.970;5.892;2024-01-30T13:09:47;10.60;76.70
47338;DHT22;33069;51.970;5.892;2024-01-30T13:12:33;10.70;76.80
47338;DHT22;33069;51.970;5.892;2024-01-30T13:15:19;10.60;76.50
47338;DHT22;33069;51.970;5.892;2024-01-30T13:18:05;10.70;76.60
47338;DHT22;33069;51.970;5.892;2024-01-30T13:20:51;10.80;76.10
47338;DHT22;33069;51.970;5.892;2024-01-30T13:23:38;10.90;75.10
47338;DHT22;33069;51.970;5.892;2024-01-30T13:26:24;10.70;74.30
47338;DHT22;33069;51.970;5.892;2024-01-30T13:29:09;10.90;73.80
47338;DHT22;33069;51.970;5.892;2024-01-30T13:31:55;10.80;72.20
47338;DHT22;33069;51.970;5.892;2024-01-30T13:34:41;10.80;71.00
47338;DHT22;33069;51.970;5.892;2024-01-30T13:37:28;10.70;70.50
47338;DHT22;33069;51.970;5.892;2024-01-30T13:40:15;10.80;69.70
47338;DHT22;33069;51.970;5.892;2024-01-30T13:43:02;10.50;70.60
47338;DHT22;33069;51.970;5.892;2024-01-30T13:45:47;10.50;70.50
47338;DHT22;33069;51.970;5.892;2024-01-30T13:48:33;10.40;70.70
47338;DHT22;33069;51.970;5.892;2024-01-30T13:51:19;10.30;72.50
47338;DHT22;33069;51.970;5.892;2024-01-30T13:54:05;10.00;75.60
47338;DHT22;33069;51.970;5.892;2024-01-30T13:56:51;9.70;77.20
47338;DHT22;33069;51.970;5.892;2024-01-30T13:59:40;9.60;77.80
47338;DHT22;33069;51.970;5.892;2024-01-30T14:02:25;9.60;78.10
47338;DHT22;33069;51.970;5.892;2024-01-30T14:05:11;9.60;78.00
47338;DHT22;33069;51.970;5.892;2024-01-30T14:07:58;9.60;78.10
47338;DHT22;33069;51.970;5.892;2024-01-30T14:10:45;9.40;78.60
47338;DHT22;33069;51.970;5.892;2024-01-30T14:13:31;9.40;78.90
47338;DHT22;33069;51.970;5.892;2024-01-30T14:16:18;9.40;78.90
47338;DHT22;33069;51.970;5.892;2024-01-30T14:19:04;9.50;78.70
47338;DHT22;33069;51.970;5.892;2024-01-30T14:21:50;9.50;78.70
47338;DHT22;33069;51.970;5.892;2024-01-30T14:24:35;9.40;78.60
47338;DHT22;33069;51.970;5.892;2024-01-30T14:27:22;9.50;78.40
47338;DHT22;33069;51.970;5.892;2024-01-30T14:30:10;9.50;78.10
47338;DHT22;33069;51.970;5.892;2024-01-30T14:32:56;9.50;78.20
47338;DHT22;33069;51.970;5.892;2024-01-30T14:35:41;9.50;78.10
47338;DHT22;33069;51.970;5.892;2024-01-30T14:38:27;9.40;78.80
47338;DHT22;33069;51.970;5.892;2024-01-30T14:41:14;9.40;78.40
47338;DHT22;33069;51.970;5.892;2024-01-30T14:44:00;9.40;78.50
47338;DHT22;33069;51.970;5.892;2024-01-30T14:46:46;9.40;78.50
47338;DHT22;33069;51.970;5.892;2024-01-30T14:49:32;9.40;78.40
47338;DHT22;33069;51.970;5.892;2024-01-30T14:52:18;9.40;78.60
47338;DHT22;33069;51.970;5.892;2024-01-30T14:55:04;9.40;78.50
47338;DHT22;33069;51.970;5.892;2024-01-30T14:57:49;9.40;78.60
47338;DHT22;33069;51.970;5.892;2024-01-30T15:00:35;9.30;79.00
47338;DHT22;33069;51.970;5.892;2024-01-30T15:03:24;9.30;78.70
47338;DHT22;33069;51.970;5.892;2024-01-30T15:06:11;9.10;79.40
47338;DHT22;33069;51.970;5.892;2024-01-30T15:08:58;9.10;79.80
47338;DHT22;33069;51.970;5.892;2024-01-30T15:11:44;9.20;79.80
47338;DHT22;33069;51.970;5.892;2024-01-30T15:14:30;9.20;79.50
47338;DHT22;33069;51.970;5.892;2024-01-30T15:17:18;9.20;79.80
47338;DHT22;33069;51.970;5.892;2024-01-30T15:20:04;9.20;79.70
47338;DHT22;33069;51.970;5.892;2024-01-30T15:22:50;9.10;80.10
47338;DHT22;33069;51.970;5.892;2024-01-30T15:25:36;9.00;80.20
47338;DHT22;33069;51.970;5.892;2024-01-30T15:28:23;9.00;80.30
47338;DHT22;33069;51.970;5.892;2024-01-30T15:31:18;9.00;80.60
47338;DHT22;33069;51.970;5.892;2024-01-30T15:34:04;9.00;80.60
47338;DHT22;33069;51.970;5.892;2024-01-30T15:36:50;9.00;80.50
47338;DHT22;33069;51.970;5.892;2024-01-30T15:39:37;9.00;80.70
47338;DHT22;33069;51.970;5.892;2024-01-30T15:42:23;9.00;80.70
47338;DHT22;33069;51.970;5.892;2024-01-30T15:45:08;8.90;81.00
47338;DHT22;33069;51.970;5.892;2024-01-30T15:47:55;9.00;80.80
47338;DHT22;33069;51.970;5.892;2024-01-30T15:50:40;9.00;80.80
47338;DHT22;33069;51.970;5.892;2024-01-30T15:53:26;8.90;81.10
47338;DHT22;33069;51.970;5.892;2024-01-30T15:56:12;8.70;81.90
47338;DHT22;33069;51.970;5.892;2024-01-30T15:58:58;8.70;82.30
47338;DHT22;33069;51.970;5.892;2024-01-30T16:01:44;8.70;82.60
47338;DHT22;33069;51.970;5.892;2024-01-30T16:04:34;8.60;83.30
47338;DHT22;33069;51.970;5.892;2024-01-30T16:07:20;8.40;84.20
47338;DHT22;33069;51.970;5.892;2024-01-30T16:10:06;8.40;84.70
47338;DHT22;33069;51.970;5.892;2024-01-30T16:12:52;8.40;85.10
47338;DHT22;33069;51.970;5.892;2024-01-30T16:15:38;8.30;85.60
47338;DHT22;33069;51.970;5.892;2024-01-30T16:18:25;8.20;86.00
47338;DHT22;33069;51.970;5.892;2024-01-30T16:21:12;8.10;86.40
47338;DHT22;33069;51.970;5.892;2024-01-30T16:23:59;8.10;86.70
47338;DHT22;33069;51.970;5.892;2024-01-30T16:26:45;8.10;86.90
47338;DHT22;33069;51.970;5.892;2024-01-30T16:29:31;8.20;86.70
47338;DHT22;33069;51.970;5.892;2024-01-30T16:32:18;8.10;86.80
47338;DHT22;33069;51.970;5.892;2024-01-30T16:35:04;8.10;86.80
47338;DHT22;33069;51.970;5.892;2024-01-30T16:37:50;8.10;86.90
47338;DHT22;33069;51.970;5.892;2024-01-30T16:40:36;8.00;87.10
47338;DHT22;33069;51.970;5.892;2024-01-30T16:43:22;8.00;87.20
47338;DHT22;33069;51.970;5.892;2024-01-30T16:46:08;7.90;87.40
47338;DHT22;33069;51.970;5.892;2024-01-30T16:48:54;8.00;87.60
47338;DHT22;33069;51.970;5.892;2024-01-30T16:51:40;7.90;87.70
47338;DHT22;33069;51.970;5.892;2024-01-30T16:54:25;7.90;87.90
47338;DHT22;33069;51.970;5.892;2024-01-30T16:57:11;7.90;88.00
47338;DHT22;33069;51.970;5.892;2024-01-30T17:01:46;7.80;88.30
47338;DHT22;33069;51.970;5.892;2024-01-30T17:04:34;7.90;88.40
47338;DHT22;33069;51.970;5.892;2024-01-30T17:07:20;7.90;88.50
47338;DHT22;33069;51.970;5.892;2024-01-30T17:10:09;7.90;88.60
47338;DHT22;33069;51.970;5.892;2024-01-30T17:12:55;7.80;88.80
47338;DHT22;33069;51.970;5.892;2024-01-30T17:15:41;7.80;88.90
47338;DHT22;33069;51.970;5.892;2024-01-30T17:18:27;7.70;89.00
47338;DHT22;33069;51.970;5.892;2024-01-30T17:21:19;7.70;89.10
47338;DHT22;33069;51.970;5.892;2024-01-30T17:24:05;7.70;89.30
47338;DHT22;33069;51.970;5.892;2024-01-30T17:26:53;7.70;89.40
47338;DHT22;33069;51.970;5.892;2024-01-30T17:29:39;7.70;89.50
47338;DHT22;33069;51.970;5.892;2024-01-30T17:32:24;7.60;89.50
47338;DHT22;33069;51.970;5.892;2024-01-30T17:35:13;7.70;89.60
47338;DHT22;33069;51.970;5.892;2024-01-30T17:38:00;7.70;89.60
47338;DHT22;33069;51.970;5.892;2024-01-30T17:40:46;7.60;89.60
47338;DHT22;33069;51.970;5.892;2024-01-30T17:43:32;7.70;89.70
47338;DHT22;33069;51.970;5.892;2024-01-30T17:46:18;7.70;89.70